Time;durP1;ratioP1;P1;durP2;ratioP2;P2;SDS_P1;SDS_P2;PMS_P1;PMS_P2;Temp;Humidity;BMP_temperature;BMP_pressure;BME280_temperature;BME280_humidity;BME280_pressure;Samples;Min_cycle;Max_cycle;Signal;HPM_P1;HPM_P2
2022/03/07 00:00:45;;;;;;;11.13;8.20;;;;;;;;;;4985831;28;20446;-87
2022/03/07 00:03:12;;;;;;;13.03;9.27;;;;;;;;;;4984881;28;20501;-88
2022/03/07 00:05:39;;;;;;;19.97;12.30;;;;;;;;;;4984343;28;20443;-88
2022/03/07 00:08:08;;;;;;;10.33;8.27;;;1.20;90.00;;;;;;4986120;28;20553;-88
2022/03/07 00:10:35;;;;;;;9.93;8.27;;;;;;;;;;4985339;28;20462;-87
2022/03/07 00:13:03;;;;;;;10.10;8.70;;;1.40;99.90;;;;;;4986834;28;20486;-88
2022/03/07 00:15:30;;;;;;;11.57;9.10;;;;;;;;;;4985113;28;20453;-89
2022/03/07 00:17:57;;;;;;;15.57;10.90;;;;;;;;;;4981558;28;20428;-89
2022/03/07 00:20:24;;;;;;;14.30;10.40;;;;;;;;;;4983503;28;20931;-89
2022/03/07 00:22:55;;;;;;;14.27;9.43;;;;;;;;;;4992829;23;20458;-88
2022/03/07 00:25:23;;;;;;;9.53;8.53;;;1.00;91.00;;;;;;5002468;28;20445;-88
2022/03/07 00:27:50;;;;;;;19.60;14.27;;;;;;;;;;5003016;28;20458;-87
2022/03/07 00:30:19;;;;;;;11.63;9.73;;;;;;;;;;5004377;28;20449;-88
2022/03/07 00:32:47;;;;;;;11.47;8.57;;;1.00;99.90;;;;;;5003473;28;20451;-88
2022/03/07 00:35:14;;;;;;;11.10;8.80;;;;;;;;;;5004953;28;20945;-88
2022/03/07 00:37:42;;;;;;;13.00;9.10;;;;;;;;;;5004734;28;20454;-88
2022/03/07 00:40:10;;;;;;;12.43;8.73;;;0.80;99.90;;;;;;4999149;28;20476;-89
2022/03/07 00:42:39;;;;;;;10.30;8.53;;;;;;;;;;4999184;28;20476;-88
2022/03/07 00:45:11;;;;;;;11.00;8.83;;;;;;;;;;5009339;23;20501;-89
2022/03/07 00:47:38;;;;;;;11.70;8.90;;;1.00;99.90;;;;;;5003311;28;20453;-86
2022/03/07 00:50:06;;;;;;;10.93;8.00;;;0.90;99.90;;;;;;4999565;28;20500;-86
2022/03/07 00:52:34;;;;;;;10.60;9.20;;;;;;;;;;5000442;28;20456;-87
2022/03/07 00:55:01;;;;;;;10.20;8.67;;;;;;;;;;5004952;28;20962;-87
2022/03/07 00:57:28;;;;;;;10.23;7.80;;;;;;;;;;5008513;28;20445;-87
2022/03/07 00:59:56;;;;;;;9.87;7.77;;;0.90;93.90;;;;;;5008619;28;20516;-88
2022/03/07 01:02:25;;;;;;;9.50;7.83;;;;;;;;;;5006801;28;20445;-88
2022/03/07 01:04:59;;;;;;;12.40;8.60;;;0.30;99.90;;;;;;5013527;23;20485;-87
2022/03/07 01:07:26;;;;;;;11.30;7.57;;;;;;;;;;5007075;28;20468;-87
2022/03/07 01:09:53;;;;;;;9.97;7.80;;;;;;;;;;5003330;28;20500;-88
2022/03/07 01:12:20;;;;;;;9.23;8.10;;;;;;;;;;5006598;28;20476;-88
2022/03/07 01:14:47;;;;;;;8.43;7.53;;;;;;;;;;5004843;28;20464;-89
2022/03/07 01:17:15;;;;;;;11.03;7.80;;;0.70;94.60;;;;;;5000601;28;20454;-88
2022/03/07 01:19:42;;;;;;;10.57;8.20;;;;;;;;;;4994412;28;20461;-88
2022/03/07 01:22:10;;;;;;;8.00;7.20;;;;;;;;;;4998271;28;20795;-88
2022/03/07 01:24:37;;;;;;;9.07;7.27;;;;;;;;;;4994712;28;20448;-89
2022/03/07 01:27:04;;;;;;;8.30;7.40;;;0.60;99.90;;;;;;4998045;28;20453;-89
2022/03/07 01:29:31;;;;;;;9.73;7.47;;;;;;;;;;4997648;28;20493;-88
2022/03/07 01:31:58;;;;;;;8.97;7.67;;;;;;;;;;4996629;28;20442;-88
2022/03/07 01:34:27;;;;;;;9.20;7.43;;;0.50;95.00;;;;;;4995989;28;20445;-87
2022/03/07 01:36:54;;;;;;;10.97;7.47;;;;;;;;;;4995688;28;20460;-89
2022/03/07 01:39:21;;;;;;;8.67;7.17;;;;;;;;;;4994351;28;20456;-87
2022/03/07 01:41:48;;;;;;;10.10;7.60;;;1.30;99.90;;;;;;4996437;28;20457;-87
2022/03/07 01:44:19;;;;;;;11.10;7.10;;;0.80;99.90;;;;;;4996738;28;20807;-88
2022/03/07 01:46:47;;;;;;;9.30;7.33;;;;;;;;;;4995944;28;20452;-88
2022/03/07 01:49:14;;;;;;;8.30;6.27;;;0.40;99.90;;;;;;4995627;28;21001;-87
2022/03/07 01:51:44;;;;;;;8.97;7.27;;;0.40;94.90;;;;;;4995665;28;20453;-88
2022/03/07 01:54:12;;;;;;;9.00;6.87;;;0.30;99.90;;;;;;5017092;28;20479;-88
2022/03/07 01:56:39;;;;;;;7.67;6.60;;;;;;;;;;5012258;28;20441;-88
2022/03/07 01:59:06;;;;;;;9.67;7.90;;;;;;;;;;5018000;28;20458;-88
2022/03/07 02:01:33;;;;;;;8.30;6.47;;;;;;;;;;5018833;28;20443;-87
2022/03/07 02:04:00;;;;;;;8.37;5.57;;;;;;;;;;5019191;28;20483;-89
2022/03/07 02:06:28;;;;;;;10.80;6.17;;;;;;;;;;5016055;28;20815;-87
2022/03/07 02:08:58;;;;;;;10.83;6.93;;;0.10;99.90;;;;;;5015915;28;20480;-87
2022/03/07 02:11:25;;;;;;;9.87;7.50;;;;;;;;;;5016176;28;20455;-88
2022/03/07 02:13:52;;;;;;;7.80;6.17;;;;;;;;;;5017804;28;20449;-89
2022/03/07 02:16:20;;;;;;;8.80;6.90;;;;;;;;;;5018047;28;20459;-88
2022/03/07 02:18:47;;;;;;;9.50;7.40;;;;;;;;;;5018050;28;20530;-87
2022/03/07 02:21:15;;;;;;;11.00;7.33;;;0.10;94.60;;;;;;5011707;28;20449;-88
2022/03/07 02:23:45;;;;;;;8.10;6.30;;;-0.10;99.90;;;;;;5018176;28;20863;-87
2022/03/07 02:26:13;;;;;;;10.00;6.77;;;0.10;99.90;;;;;;5009194;28;20452;-88
2022/03/07 02:28:40;;;;;;;8.10;6.20;;;;;;;;;;5014890;28;20480;-86
2022/03/07 02:31:08;;;;;;;7.40;6.60;;;;;;;;;;5014657;28;20459;-88
2022/03/07 02:33:35;;;;;;;7.90;5.80;;;;;;;;;;5014604;28;20452;-87
2022/03/07 02:36:04;;;;;;;7.50;5.50;;;;;;;;;;4979759;28;20449;-87
2022/03/07 02:38:32;;;;;;;9.53;6.67;;;-0.30;94.30;;;;;;5015970;28;20449;-88
2022/03/07 02:41:07;;;;;;;8.27;6.73;;;-0.30;94.30;;;;;;5014499;28;20455;-88
2022/03/07 02:43:34;;;;;;;8.37;6.40;;;;;;;;;;5016528;28;20476;-87
2022/03/07 02:46:01;;;;;;;9.10;6.83;;;;;;;;;;5018809;28;20444;-87
2022/03/07 02:48:29;;;;;;;7.33;5.87;;;;;;;;;;5016199;28;20571;-88
2022/03/07 02:50:58;;;;;;;8.40;6.37;;;;;;;;;;5015506;28;20460;-87
2022/03/07 02:53:25;;;;;;;9.37;5.60;;;;;;;;;;5015565;28;20527;-88
2022/03/07 02:55:53;;;;;;;7.30;6.00;;;;;;;;;;5015190;28;20448;-87
2022/03/07 02:58:21;;;;;;;8.70;6.73;;;-0.50;94.80;;;;;;5015926;28;20436;-87
2022/03/07 03:00:48;;;;;;;8.10;6.57;;;;;;;;;;5021445;28;20451;-87
2022/03/07 03:03:15;;;;;;;13.07;6.90;;;;;;;;;;5021595;28;20440;-89
2022/03/07 03:05:42;;;;;;;10.67;7.30;;;;;;;;;;5028692;28;20480;-87
2022/03/07 03:08:10;;;;;;;10.20;6.53;;;;;;;;;;5028405;28;20456;-88
2022/03/07 03:10:37;;;;;;;8.43;6.53;;;;;;;;;;5024400;28;20503;-87
2022/03/07 03:13:04;;;;;;;10.20;5.73;;;-0.60;99.90;;;;;;5027039;28;20448;-88
2022/03/07 03:15:33;;;;;;;8.80;5.93;;;-0.70;94.90;;;;;;5026778;28;20448;-87
2022/03/07 03:18:00;;;;;;;8.60;6.20;;;;;;;;;;5027059;28;20463;-88
2022/03/07 03:20:27;;;;;;;9.80;6.40;;;;;;;;;;5022760;28;20459;-87
2022/03/07 03:22:54;;;;;;;10.20;6.10;;;;;;;;;;5019763;28;20452;-87
2022/03/07 03:25:22;;;;;;;10.67;7.27;;;;;;;;;;5017205;28;20448;-87
2022/03/07 03:27:49;;;;;;;8.73;6.90;;;;;;;;;;5018384;28;20456;-87
2022/03/07 03:30:16;;;;;;;10.03;6.17;;;;;;;;;;5015314;28;20545;-87
2022/03/07 03:32:45;;;;;;;12.23;6.80;;;-0.90;95.40;;;;;;5018386;28;20448;-87
2022/03/07 03:35:12;;;;;;;13.30;7.10;;;;;;;;;;5018219;28;20460;-87
2022/03/07 03:37:39;;;;;;;10.50;6.57;;;;;;;;;;5017536;28;20448;-88
2022/03/07 03:40:09;;;;;;;9.30;6.80;;;-1.20;98.70;;;;;;5019219;28;20459;-87
2022/03/07 03:42:37;;;;;;;8.03;6.90;;;;;;;;;;5027397;28;20459;-86
2022/03/07 03:45:05;;;;;;;11.40;7.20;;;;;;;;;;5026274;28;20804;-88
2022/03/07 03:47:32;;;;;;;9.27;7.23;;;;;;;;;;5027189;28;20453;-85
2022/03/07 03:50:01;;;;;;;11.70;6.80;;;-1.00;96.00;;;;;;5026613;28;20843;-87
2022/03/07 03:52:28;;;;;;;10.47;7.90;;;;;;;;;;5023081;28;20476;-87
2022/03/07 03:54:56;;;;;;;10.53;6.93;;;;;;;;;;5026120;28;20456;-86
2022/03/07 03:57:23;;;;;;;7.20;6.00;;;;;;;;;;5018960;28;20503;-88
2022/03/07 03:59:51;;;;;;;8.67;7.13;;;;;;;;;;5021182;28;20459;-87
2022/03/07 04:02:18;;;;;;;8.63;6.73;;;;;;;;;;5017466;28;20461;-87
2022/03/07 04:04:45;;;;;;;8.80;6.17;;;;;;;;;;5017045;28;20488;-87
2022/03/07 04:07:13;;;;;;;7.00;6.30;;;-1.20;96.20;;;;;;5014531;28;20449;-87
2022/03/07 04:09:41;;;;;;;10.23;6.83;;;-1.10;99.90;;;;;;5015237;28;20459;-87
2022/03/07 04:12:09;;;;;;;9.83;6.80;;;-1.30;99.90;;;;;;5017292;28;20453;-87
2022/03/07 04:14:36;;;;;;;8.57;6.93;;;;;;;;;;5017513;28;20456;-87
2022/03/07 04:17:03;;;;;;;10.53;7.60;;;;;;;;;;5015786;28;20444;-87
2022/03/07 04:19:30;;;;;;;13.43;7.37;;;;;;;;;;5014336;28;20484;-87
2022/03/07 04:21:58;;;;;;;13.03;8.00;;;;;;;;;;5018122;28;20834;-87
2022/03/07 04:24:28;;;;;;;9.27;7.47;;;-1.30;97.00;;;;;;5016496;28;20545;-87
2022/03/07 04:26:55;;;;;;;9.83;6.67;;;;;;;;;;5017370;28;20483;-87
2022/03/07 04:29:22;;;;;;;12.30;8.40;;;;;;;;;;5017170;28;20960;-87
2022/03/07 04:31:50;;;;;;;9.17;6.87;;;;;;;;;;5016627;28;20452;-87
2022/03/07 04:34:17;;;;;;;10.87;7.27;;;;;;;;;;5019477;28;20999;-87
2022/03/07 04:36:45;;;;;;;9.73;8.20;;;;;;;;;;5008828;23;20935;-87
2022/03/07 04:39:12;;;;;;;8.80;7.57;;;-1.40;98.00;;;;;;4996919;28;20815;-86
2022/03/07 04:41:43;;;;;;;9.73;7.33;;;-1.40;98.10;;;;;;4996437;28;20453;-87
2022/03/07 04:44:10;;;;;;;10.20;7.30;;;;;;;;;;4997771;28;20442;-86
2022/03/07 04:46:37;;;;;;;10.17;7.13;;;;;;;;;;4997346;28;20450;-86
2022/03/07 04:49:05;;;;;;;10.40;7.93;;;;;;;;;;4994235;28;20460;-86
2022/03/07 04:51:32;;;;;;;11.77;6.73;;;-1.10;99.90;;;;;;4997251;28;20470;-87
2022/03/07 04:53:59;;;;;;;9.80;7.70;;;;;;;;;;4996971;28;20846;-87
2022/03/07 04:56:26;;;;;;;8.97;7.27;;;;;;;;;;5007319;28;20458;-86
2022/03/07 04:58:55;;;;;;;10.10;7.40;;;;;;;;;;5008100;28;20445;-87
2022/03/07 05:01:22;;;;;;;11.83;7.93;;;;;;;;;;5008488;28;20492;-87
2022/03/07 05:03:49;;;;;;;11.90;8.23;;;;;;;;;;5007453;28;20441;-87
2022/03/07 05:06:17;;;;;;;8.80;7.73;;;;;;;;;;5007940;28;20452;-86
2022/03/07 05:08:44;;;;;;;10.73;8.30;;;;;;;;;;5006661;28;20869;-87
2022/03/07 05:11:11;;;;;;;11.17;8.17;;;;;;;;;;4998936;28;20456;-86
2022/03/07 05:13:38;;;;;;;10.77;8.10;;;;;;;;;;5007787;28;20449;-86
2022/03/07 05:16:08;;;;;;;10.50;7.83;;;;;;;;;;5015392;23;20440;-87
2022/03/07 05:18:35;;;;;;;10.40;8.00;;;;;;;;;;4984649;28;20478;-86
2022/03/07 05:21:02;;;;;;;14.70;9.23;;;;;;;;;;4988845;28;20494;-86
2022/03/07 05:23:29;;;;;;;12.13;8.87;;;;;;;;;;4988681;28;20446;-87
2022/03/07 05:25:56;;;;;;;12.10;8.70;;;;;;;;;;4988902;28;20454;-86
2022/03/07 05:28:24;;;;;;;11.03;7.90;;;;;;;;;;4988491;28;20461;-87
2022/03/07 05:30:51;;;;;;;11.83;8.20;;;;;;;;;;4982159;28;20458;-87
2022/03/07 05:33:19;;;;;;;13.17;9.33;;;-1.40;99.90;;;;;;4979101;28;20446;-87
2022/03/07 05:35:46;;;;;;;12.87;8.77;;;;;;;;;;4979232;28;20443;-87
2022/03/07 05:38:13;;;;;;;19.30;9.37;;;;;;;;;;4979063;28;20450;-87
2022/03/07 05:40:41;;;;;;;12.77;9.33;;;;;;;;;;4977451;28;20494;-86
2022/03/07 05:43:08;;;;;;;12.90;8.90;;;;;;;;;;4978813;28;20450;-87
2022/03/07 05:45:35;;;;;;;12.90;8.90;;;;;;;;;;4978434;28;20453;-86
2022/03/07 05:48:02;;;;;;;14.27;9.20;;;;;;;;;;4979309;28;20534;-86
2022/03/07 05:50:30;;;;;;;12.80;8.97;;;-1.40;99.90;;;;;;4987485;28;20451;-86
2022/03/07 05:52:58;;;;;;;14.07;9.23;;;;;;;;;;5006899;28;20433;-87
2022/03/07 05:55:25;;;;;;;9.67;7.67;;;;;;;;;;5003484;28;20441;-87
2022/03/07 05:57:59;;;;;;;14.60;8.97;;;;;;;;;;5005801;28;20450;-86
2022/03/07 06:00:26;;;;;;;17.40;9.00;;;;;;;;;;5007494;28;20493;-87
2022/03/07 06:02:53;;;;;;;18.20;13.20;;;;;;;;;;5006732;28;20480;-87
2022/03/07 06:05:21;;;;;;;21.50;12.37;;;;;;;;;;5007883;28;20449;-87
2022/03/07 06:07:49;;;;;;;15.57;10.70;;;-1.40;99.90;;;;;;5004296;28;20461;-86
2022/03/07 06:10:16;;;;;;;12.60;8.90;;;;;;;;;;5004002;28;20457;-87
2022/03/07 06:12:43;;;;;;;15.27;9.40;;;;;;;;;;5004632;28;20453;-86
2022/03/07 06:15:10;;;;;;;18.33;9.50;;;-1.30;99.90;;;;;;5000794;28;20536;-87
2022/03/07 06:17:38;;;;;;;14.13;9.43;;;;;;;;;;4995324;28;20488;-87
2022/03/07 06:20:06;;;;;;;15.17;9.53;;;-1.30;99.90;;;;;;5000012;28;20485;-87
2022/03/07 06:22:33;;;;;;;11.37;8.23;;;;;;;;;;4939794;29;20448;-87
2022/03/07 06:25:02;;;;;;;13.57;9.23;;;-1.10;99.90;;;;;;4935342;29;20464;-87
2022/03/07 06:27:29;;;;;;;14.20;8.90;;;;;;;;;;4942965;29;20456;-87
2022/03/07 06:29:56;;;;;;;13.17;8.13;;;;;;;;;;4946160;29;20452;-86
2022/03/07 06:32:24;;;;;;;12.63;8.43;;;;;;;;;;4946206;29;20559;-87
2022/03/07 06:34:51;;;;;;;14.20;9.57;;;;;;;;;;4950333;29;20448;-87
2022/03/07 06:37:20;;;;;;;11.60;8.50;;;-0.60;99.90;;;;;;4962250;23;20505;-87
2022/03/07 06:39:47;;;;;;;13.23;9.20;;;;;;;;;;4989257;28;20454;-87
2022/03/07 06:42:16;;;;;;;10.77;7.43;;;-0.20;99.90;;;;;;5009245;23;20471;-87
2022/03/07 06:44:43;;;;;;;14.27;8.67;;;;;;;;;;5013712;28;20517;-87
2022/03/07 06:47:10;;;;;;;16.03;10.17;;;;;;;;;;5012454;28;20453;-87
2022/03/07 06:49:37;;;;;;;15.57;11.30;;;0.10;99.90;;;;;;5009364;28;20444;-86
2022/03/07 06:52:04;;;;;;;22.10;15.07;;;0.00;99.40;;;;;;5009218;28;20492;-89
2022/03/07 06:54:32;;;;;;;11.80;9.53;;;;;;;;;;5000244;28;20449;-92
2022/03/07 06:56:59;;;;;;;19.17;12.90;;;;;;;;;;4999188;28;20505;-88
2022/03/07 06:59:27;;;;;;;8.93;7.70;;;0.20;97.80;;;;;;4999663;28;20456;-91
2022/03/07 07:01:54;;;;;;;17.10;11.07;;;;;;;;;;4998031;28;21011;-89
2022/03/07 07:04:26;;;;;;;15.37;9.80;;;0.80;99.90;;;;;;4998817;28;20464;-94
2022/03/07 07:06:53;;;;;;;41.77;23.60;;;;;;;;;;4999577;28;20523;-87
2022/03/07 07:09:20;;;;;;;18.87;12.30;;;;;;;;;;4993727;28;20480;-88
2022/03/07 07:11:47;;;;;;;9.90;7.50;;;;;;;;;;4998754;28;20457;-92
2022/03/07 07:14:14;;;;;;;12.07;8.43;;;;;;;;;;4998963;28;20453;-89
2022/03/07 07:16:42;;;;;;;22.50;13.70;;;1.30;95.20;;;;;;4997990;28;20453;-88
2022/03/07 07:19:10;;;;;;;50.30;27.97;;;;;;;;;;4997718;28;20449;-88
2022/03/07 07:21:37;;;;;;;17.07;12.10;;;;;;;;;;4999929;28;20500;-90
2022/03/07 07:24:04;;;;;;;11.80;8.03;;;;;;;;;;4999591;28;20457;-90
2022/03/07 07:26:31;;;;;;;14.80;9.87;;;;;;;;;;4998919;28;20793;-89
2022/03/07 07:28:58;;;;;;;12.43;9.07;;;;;;;;;;4997717;28;20453;-88
2022/03/07 07:31:26;;;;;;;21.37;13.20;;;;;;;;;;4998597;28;20447;-88
2022/03/07 07:33:54;;;;;;;12.97;10.07;;;1.90;94.40;;;;;;4998066;28;20449;-87
2022/03/07 07:36:21;;;;;;;15.60;11.57;;;;;;;;;;4998414;28;20821;-87
2022/03/07 07:38:48;;;;;;;17.40;11.00;;;;;;;;;;4999899;28;20453;-90
2022/03/07 07:41:15;;;;;;;27.07;18.13;;;;;;;;;;5002236;28;20496;-89
2022/03/07 07:43:42;;;;;;;38.03;23.53;;;;;;;;;;5001157;28;20449;-87
2022/03/07 07:46:09;;;;;;;23.37;15.07;;;;;;;;;;4999548;28;20500;-88
2022/03/07 07:48:37;;;;;;;29.03;18.03;;;;;;;;;;5001863;28;20460;-88
2022/03/07 07:51:05;;;;;;;15.27;11.77;;;3.00;92.20;;;;;;4999814;28;20466;-89
2022/03/07 07:53:33;;;;;;;11.80;9.67;;;;;;;;;;4998999;28;20460;-88
2022/03/07 07:56:01;;;;;;;9.80;8.33;;;;;;;;;;4995822;28;20814;-91
2022/03/07 07:58:29;;;;;;;14.90;11.03;;;;;;;;;;4998158;28;20453;-87
2022/03/07 08:00:56;;;;;;;10.17;8.80;;;;;;;;;;4992798;28;20493;-91
2022/03/07 08:03:23;;;;;;;11.07;9.00;;;;;;;;;;4979659;28;20454;-88
2022/03/07 08:05:50;;;;;;;9.33;8.33;;;;;;;;;;4983767;28;20958;-86
2022/03/07 08:08:18;;;;;;;12.50;9.67;;;;;;;;;;4987115;28;20454;-87
2022/03/07 08:10:45;;;;;;;10.83;9.20;;;;;;;;;;4994856;28;20481;-86
2022/03/07 08:13:13;;;;;;;9.87;8.87;;;;;;;;;;4995861;28;20816;-84
2022/03/07 08:15:40;;;;;;;9.90;8.20;;;;;;;;;;4995900;28;20453;-87
2022/03/07 08:18:07;;;;;;;11.03;9.63;;;;;;;;;;4996391;28;20456;-86
2022/03/07 08:20:35;;;;;;;12.40;8.67;;;;;;;;;;4997277;28;20832;-87
2022/03/07 08:23:04;;;;;;;9.90;8.80;;;3.80;86.10;;;;;;4996375;28;20452;-86
2022/03/07 08:25:33;;;;;;;14.70;10.17;;;4.20;87.00;;;;;;4994245;28;20457;-86
2022/03/07 08:28:01;;;;;;;9.07;8.17;;;;;;;;;;4992759;28;21064;-86
2022/03/07 08:30:28;;;;;;;11.23;8.43;;;4.30;85.80;;;;;;4995846;28;20464;-86
2022/03/07 08:32:56;;;;;;;11.40;9.00;;;4.70;85.40;;;;;;4996597;28;20481;-93
2022/03/07 08:35:30;;;;;;;11.10;8.50;;;4.70;84.60;;;;;;5002839;28;20460;-91
2022/03/07 08:37:57;;;;;;;21.83;16.13;;;;;;;;;;5008784;28;20453;-93
2022/03/07 08:40:25;;;;;;;10.30;8.73;;;;;;;;;;4996135;28;20480;-86
2022/03/07 08:42:53;;;;;;;11.80;9.67;;;4.20;84.20;;;;;;4995493;28;20481;-86
2022/03/07 08:45:20;;;;;;;11.73;9.77;;;;;;;;;;4995526;28;20449;-86
2022/03/07 08:47:48;;;;;;;13.27;11.60;;;;;;;;;;4995394;28;20456;-86
2022/03/07 08:50:18;;;;;;;11.83;9.17;;;;;;;;;;4996435;28;20460;-86
2022/03/07 08:52:45;;;;;;;11.77;9.70;;;;;;;;;;4995398;28;20445;-86
2022/03/07 08:55:12;;;;;;;9.33;8.33;;;;;;;;;;4993942;28;20453;-86
2022/03/07 08:57:40;;;;;;;9.90;8.33;;;;;;;;;;4996246;28;20445;-87
2022/03/07 09:00:11;;;;;;;11.27;8.90;;;3.30;85.80;;;;;;4995280;28;20456;-86
2022/03/07 09:02:38;;;;;;;18.43;8.33;;;;;;;;;;4981510;28;20494;-87
2022/03/07 09:05:06;;;;;;;11.53;8.60;;;;;;;;;;4974854;28;20522;-87
2022/03/07 09:07:33;;;;;;;9.87;8.87;;;;;;;;;;4977088;28;20561;-88
2022/03/07 09:10:00;;;;;;;13.63;10.80;;;;;;;;;;4978139;28;20686;-96
2022/03/07 09:12:28;;;;;;;12.23;9.20;;;;;;;;;;4960946;29;20563;-93
2022/03/07 09:14:56;;;;;;;11.50;10.10;;;;;;;;;;4960895;29;20502;-93
2022/03/07 09:17:29;;;;;;;15.00;10.60;;;;;;;;;;4957056;28;20451;-93
2022/03/07 09:19:58;;;;;;;10.63;9.23;;;;;;;;;;4961508;29;20451;-93
2022/03/07 09:22:25;;;;;;;11.17;8.60;;;;;;;;;;4961773;29;20542;-93
2022/03/07 09:24:57;;;;;;;10.23;9.13;;;7.70;73.90;;;;;;4902291;29;20464;-94
2022/03/07 09:27:24;;;;;;;10.60;8.60;;;;;;;;;;4902630;29;20486;-92
2022/03/07 09:29:54;;;;;;;11.00;8.57;;;;;;;;;;4910665;29;20454;-91
2022/03/07 09:32:21;;;;;;;10.60;8.60;;;;;;;;;;4944366;29;20451;-94
2022/03/07 09:34:50;;;;;;;10.23;9.20;;;;;;;;;;4941446;29;20440;-93
2022/03/07 09:37:18;;;;;;;10.27;9.20;;;;;;;;;;4940888;29;20547;-93
2022/03/07 09:39:47;;;;;;;10.70;9.60;;;9.90;73.70;;;;;;4943234;29;20443;-93
2022/03/07 09:42:16;;;;;;;10.87;8.90;;;;;;;;;;4943064;28;20520;-92
2022/03/07 09:44:43;;;;;;;10.43;9.20;;;;;;;;;;4983561;28;20961;-92
2022/03/07 09:47:10;;;;;;;9.33;8.40;;;;;;;;;;4983486;28;20465;-92
2022/03/07 09:49:42;;;;;;;12.57;10.43;;;5.60;71.50;;;;;;4985746;28;20450;-93
2022/03/07 09:52:16;;;;;;;10.43;9.33;;;6.30;72.70;;;;;;4985736;28;20513;-91
2022/03/07 09:54:43;;;;;;;9.73;7.87;;;;;;;;;;4997331;28;20462;-93
2022/03/07 09:57:16;;;;;;;10.50;8.67;;;;;;;;;;4996395;28;20443;-90
2022/03/07 09:59:43;;;;;;;11.23;8.20;;;;;;;;;;5001727;23;20491;-90
2022/03/07 10:02:13;;;;;;;9.23;8.20;;;;;;;;;;5002633;28;20452;-91
2022/03/07 10:04:46;;;;;;;10.63;9.53;;;4.70;77.40;;;;;;5003522;28;20512;-91
2022/03/07 10:07:14;;;;;;;10.70;8.27;;;;;;;;;;5074341;23;20492;-91
2022/03/07 10:09:43;;;;;;;11.00;9.03;;;;;;;;;;5009996;28;20434;-94
2022/03/07 10:12:14;;;;;;;11.50;9.03;;;;;;;;;;5006131;28;20488;-93
2022/03/07 10:14:44;;;;;;;15.93;13.43;;;4.60;77.70;;;;;;5032458;23;20495;-90
2022/03/07 10:17:19;;;;;;;12.33;9.00;;;;;;;;;;5001860;28;20523;-93
2022/03/07 10:19:51;;;;;;;13.50;9.70;;;;;;;;;;5008591;28;20488;-90
2022/03/07 10:22:21;;;;;;;14.83;9.63;;;4.20;80.10;;;;;;5000313;28;20445;-92
2022/03/07 10:24:49;;;;;;;9.50;7.30;;;;;;;;;;5001719;28;20515;-91
2022/03/07 10:27:25;;;;;;;12.60;10.00;;;;;;;;;;5001575;28;20457;-91
2022/03/07 10:29:52;;;;;;;14.30;10.17;;;;;;;;;;5005389;28;20499;-90
2022/03/07 10:32:20;;;;;;;12.00;9.07;;;;;;;;;;5001496;28;20485;-92
2022/03/07 10:34:48;;;;;;;10.77;9.27;;;;;;;;;;5001562;28;20448;-92
2022/03/07 10:37:16;;;;;;;11.97;9.27;;;;;;;;;;5001781;28;20428;-92
2022/03/07 10:39:52;;;;;;;9.80;8.43;;;3.20;81.60;;;;;;5009706;23;20448;-89
2022/03/07 10:42:21;;;;;;;12.47;8.97;;;3.10;83.20;;;;;;5001215;28;20460;-91
2022/03/07 10:45:00;;;;;;;10.40;8.23;;;;;;;;;;5003454;28;20529;-92
2022/03/07 10:47:30;;;;;;;13.80;9.73;;;3.20;83.70;;;;;;5007347;28;20451;-93
2022/03/07 10:50:00;;;;;;;12.73;10.33;;;3.60;84.30;;;;;;4997070;28;20451;-92
2022/03/07 10:52:36;;;;;;;16.40;11.03;;;4.20;82.30;;;;;;4997426;28;20488;-91
2022/03/07 10:55:05;;;;;;;11.60;8.23;;;;;;;;;;5001802;28;20472;-91
2022/03/07 10:57:37;;;;;;;9.23;8.10;;;4.80;78.80;;;;;;4999300;28;20783;-90
2022/03/07 11:00:11;;;;;;;11.30;10.10;;;5.20;80.40;;;;;;5000287;28;20453;-92
2022/03/07 11:02:41;;;;;;;11.70;9.53;;;5.20;80.00;;;;;;4999529;28;20460;-91
2022/03/07 11:05:09;;;;;;;13.00;9.50;;;5.10;79.10;;;;;;4994843;28;20461;-91
2022/03/07 11:07:39;;;;;;;11.40;9.13;;;5.10;79.50;;;;;;4991943;28;20484;-90
2022/03/07 11:10:08;;;;;;;10.67;9.27;;;6.10;78.90;;;;;;4998227;28;20461;-91
2022/03/07 11:12:36;;;;;;;14.60;10.67;;;6.90;77.00;;;;;;4990347;28;20531;-91
2022/03/07 11:15:08;;;;;;;15.10;12.57;;;;;;;;;;4998206;28;20813;-92
2022/03/07 11:17:40;;;;;;;12.80;10.50;;;7.20;71.80;;;;;;4999836;28;20472;-91
2022/03/07 11:20:09;;;;;;;15.27;11.50;;;6.70;74.10;;;;;;5001494;28;20905;-91
2022/03/07 11:22:36;;;;;;;14.30;11.77;;;;;;;;;;4997377;28;20430;-90
2022/03/07 11:25:06;;;;;;;14.13;10.90;;;5.60;75.30;;;;;;4999681;28;20932;-90
2022/03/07 11:27:37;;;;;;;11.53;10.23;;;5.10;77.50;;;;;;5000945;28;20433;-91
2022/03/07 11:30:14;;;;;;;13.07;10.40;;;5.70;77.40;;;;;;5001228;28;20450;-93
2022/03/07 11:32:41;;;;;;;13.50;12.10;;;;;;;;;;5002453;28;20480;-91
2022/03/07 11:35:09;;;;;;;14.87;10.67;;;5.70;97.30;;;;;;5001034;28;20800;-90
2022/03/07 11:37:39;;;;;;;13.33;9.50;;;5.20;76.50;;;;;;4999901;28;20445;-91
2022/03/07 11:40:18;;;;;;;12.23;8.43;;;6.00;75.00;;;;;;5001650;28;20988;-89
2022/03/07 11:42:47;;;;;;;10.20;9.00;;;6.30;74.60;;;;;;4997039;28;20525;-92
2022/03/07 11:45:18;;;;;;;10.67;9.30;;;7.10;74.20;;;;;;4999838;28;20422;-92
2022/03/07 11:47:51;;;;;;;9.83;8.83;;;7.20;71.50;;;;;;5002228;28;20841;-92
2022/03/07 11:50:20;;;;;;;10.97;9.83;;;7.20;72.50;;;;;;4942549;29;20508;-91
2022/03/07 11:52:48;;;;;;;15.33;12.10;;;8.00;72.40;;;;;;4944203;29;20491;-94
2022/03/07 11:55:19;;;;;;;13.57;11.00;;;8.30;70.40;;;;;;4939045;29;20452;-93
2022/03/07 11:57:49;;;;;;;12.90;9.77;;;6.90;69.30;;;;;;4942089;29;20452;-91
2022/03/07 12:00:23;;;;;;;13.50;11.80;;;6.10;73.30;;;;;;4937242;29;20507;-92
2022/03/07 12:02:52;;;;;;;23.93;16.53;;;6.30;74.30;;;;;;4940852;29;20491;-89
2022/03/07 12:05:31;;;;;;;12.17;9.87;;;7.00;95.60;;;;;;4936379;29;20476;-88
2022/03/07 12:08:09;;;;;;;11.13;9.87;;;7.60;69.40;;;;;;4958531;28;20449;-89
2022/03/07 12:10:39;;;;;;;13.10;10.77;;;6.80;68.90;;;;;;5002912;28;20441;-91
2022/03/07 12:13:11;;;;;;;11.00;8.97;;;7.30;71.50;;;;;;4998174;28;20495;-90
2022/03/07 12:15:46;;;;;;;13.17;9.83;;;7.00;70.10;;;;;;4999357;28;20461;-89
2022/03/07 12:18:15;;;;;;;17.73;10.23;;;7.50;95.50;;;;;;5000127;28;20898;-90
2022/03/07 12:20:53;;;;;;;11.80;9.40;;;7.50;72.50;;;;;;5002926;28;20434;-91
2022/03/07 12:23:21;;;;;;;12.87;10.30;;;7.80;67.30;;;;;;4994983;28;20440;-90
2022/03/07 12:25:48;;;;;;;11.93;10.37;;;;;;;;;;4999324;28;20457;-88
2022/03/07 12:28:17;;;;;;;9.60;7.70;;;;;;;;;;5010586;28;20425;-91
2022/03/07 12:30:45;;;;;;;9.80;7.67;;;;;;;;;;5018947;28;20504;-91
2022/03/07 12:33:12;;;;;;;11.60;9.60;;;;;;;;;;5001759;28;20488;-91
2022/03/07 12:35:39;;;;;;;12.63;10.10;;;;;;;;;;4997784;28;20445;-92
2022/03/07 12:38:07;;;;;;;12.37;10.67;;;;;;;;;;4997233;28;20465;-92
2022/03/07 12:40:34;;;;;;;11.53;8.73;;;;;;;;;;4999797;28;20485;-90
2022/03/07 12:43:02;;;;;;;12.50;10.20;;;;;;;;;;4997550;28;20444;-92
2022/03/07 12:45:45;;;;;;;11.03;8.63;;;7.20;67.60;;;;;;5028156;23;20497;-88
2022/03/07 12:48:12;;;;;;;13.47;11.30;;;;;;;;;;5002004;28;20437;-88
2022/03/07 12:50:39;;;;;;;11.17;8.97;;;;;;;;;;5005823;28;20466;-87
2022/03/07 12:53:12;;;;;;;10.67;8.10;;;8.80;64.50;;;;;;5000684;28;20535;-87
2022/03/07 12:55:41;;;;;;;11.97;10.67;;;;;;;;;;5000649;28;20442;-91
2022/03/07 12:58:08;;;;;;;11.53;8.67;;;;;;;;;;5000347;28;20432;-92
2022/03/07 13:00:37;;;;;;;11.60;9.40;;;;;;;;;;4997085;28;20457;-87
2022/03/07 13:03:05;;;;;;;13.20;9.10;;;7.40;64.20;;;;;;5004404;28;20445;-87
2022/03/07 13:05:33;;;;;;;12.03;9.93;;;;;;;;;;4996022;28;20434;-87
2022/03/07 13:08:01;;;;;;;11.33;9.53;;;9.10;64.50;;;;;;4998523;28;20445;-86
2022/03/07 13:10:29;;;;;;;10.40;9.30;;;8.40;62.30;;;;;;4994178;28;20441;-88
2022/03/07 13:12:59;;;;;;;8.53;7.63;;;8.10;62.30;;;;;;5002921;28;20465;-89
2022/03/07 13:15:28;;;;;;;11.63;10.37;;;;;;;;;;5001710;28;20456;-88
2022/03/07 13:18:03;;;;;;;12.67;9.50;;;6.60;92.80;;;;;;4998948;28;20437;-89
2022/03/07 13:20:30;;;;;;;11.80;9.47;;;;;;;;;;5002361;28;20444;-87
2022/03/07 13:23:00;;;;;;;10.33;9.00;;;7.50;63.70;;;;;;4999779;28;20441;-87
2022/03/07 13:25:27;;;;;;;13.10;10.33;;;;;;;;;;5000344;28;20482;-87
2022/03/07 13:27:54;;;;;;;11.13;9.50;;;;;;;;;;5002205;28;20442;-87
2022/03/07 13:30:21;;;;;;;11.53;8.47;;;;;;;;;;4997910;28;20445;-87
2022/03/07 13:32:49;;;;;;;12.03;10.50;;;;;;;;;;4999438;28;20481;-87
2022/03/07 13:35:25;;;;;;;9.70;8.20;;;7.40;63.50;;;;;;4992048;28;20449;-88
2022/03/07 13:37:52;;;;;;;14.10;10.07;;;;;;;;;;5008600;23;20495;-88
2022/03/07 13:40:21;;;;;;;12.50;9.60;;;7.40;62.80;;;;;;5001383;28;20433;-88
2022/03/07 13:42:51;;;;;;;10.33;8.80;;;7.80;63.00;;;;;;4999966;28;20577;-88
2022/03/07 13:45:20;;;;;;;11.57;10.13;;;7.90;62.40;;;;;;4996639;28;20804;-88
2022/03/07 13:47:48;;;;;;;9.70;8.70;;;6.90;63.10;;;;;;4996410;28;20444;-87
2022/03/07 13:50:23;;;;;;;11.17;9.10;;;7.70;64.00;;;;;;4999271;28;20438;-90
2022/03/07 13:53:01;;;;;;;16.20;10.20;;;7.90;62.30;;;;;;5016153;23;20576;-88
2022/03/07 13:55:33;;;;;;;12.30;10.10;;;8.20;61.60;;;;;;5007911;28;20437;-90
2022/03/07 13:58:01;;;;;;;10.93;8.87;;;;;;;;;;5004755;28;20429;-89